sensor_id;sensor_type;location;lat;lon;timestamp;pressure;altitude;pressure_sealevel;temperature;humidity
56514;BME280;45381;52.078;8.414;2022-07-06T14:49:16;100883.66;;;22.07;37.20
56514;BME280;45381;52.078;8.414;2022-07-06T14:51:22;100885.59;;;22.03;37.57
56514;BME280;45381;52.078;8.414;2022-07-06T14:53:07;100875.97;;;21.90;37.16
56514;BME280;45381;52.078;8.414;2022-07-06T14:54:52;100876.75;;;21.91;37.46
56514;BME280;45381;52.078;8.414;2022-07-06T14:56:39;100868.22;;;22.03;37.79
56514;BME280;45381;52.078;8.414;2022-07-06T14:58:24;100862.59;;;21.96;37.48
56514;BME280;45381;52.078;8.414;2022-07-06T15:00:11;100865.72;;;21.91;37.65
56514;BME280;45381;52.078;8.414;2022-07-06T15:01:57;100871.50;;;21.82;37.96
56514;BME280;45381;52.078;8.414;2022-07-06T15:03:42;100871.06;;;21.76;37.25
56514;BME280;45381;52.078;8.414;2022-07-06T15:05:27;100867.25;;;21.88;37.59
56514;BME280;45381;52.078;8.414;2022-07-06T15:07:15;100871.16;;;21.83;37.53
56514;BME280;45381;52.078;8.414;2022-07-06T15:09:00;100867.94;;;21.81;37.15
56514;BME280;45381;52.078;8.414;2022-07-06T15:10:46;100861.53;;;21.74;37.21
56514;BME280;45381;52.078;8.414;2022-07-06T15:12:31;100858.09;;;21.80;37.16
56514;BME280;45381;52.078;8.414;2022-07-06T15:14:16;100853.97;;;21.97;36.98
56514;BME280;45381;52.078;8.414;2022-07-06T15:16:01;100848.53;;;22.08;36.45
56514;BME280;45381;52.078;8.414;2022-07-06T15:17:46;100844.38;;;22.21;36.66
56514;BME280;45381;52.078;8.414;2022-07-06T15:19:31;100844.91;;;22.34;36.30
56514;BME280;45381;52.078;8.414;2022-07-06T15:21:16;100840.97;;;22.35;36.12
56514;BME280;45381;52.078;8.414;2022-07-06T15:23:04;100837.41;;;22.34;36.24
56514;BME280;45381;52.078;8.414;2022-07-06T15:24:49;100846.50;;;22.35;36.69
56514;BME280;45381;52.078;8.414;2022-07-06T15:26:34;100846.81;;;22.26;36.59
56514;BME280;45381;52.078;8.414;2022-07-06T15:28:19;100842.38;;;22.18;36.83
56514;BME280;45381;52.078;8.414;2022-07-06T15:30:07;100840.09;;;22.24;37.04
56514;BME280;45381;52.078;8.414;2022-07-06T15:31:52;100848.00;;;22.29;36.83
56514;BME280;45381;52.078;8.414;2022-07-06T15:33:37;100842.00;;;22.20;36.99
56514;BME280;45381;52.078;8.414;2022-07-06T15:35:22;100843.09;;;22.11;37.20
56514;BME280;45381;52.078;8.414;2022-07-06T15:37:07;100846.94;;;22.03;37.24
56514;BME280;45381;52.078;8.414;2022-07-06T15:38:55;100849.09;;;21.87;37.39
56514;BME280;45381;52.078;8.414;2022-07-06T15:40:40;100843.66;;;21.94;37.63
56514;BME280;45381;52.078;8.414;2022-07-06T15:42:26;100830.91;;;21.82;37.57
56514;BME280;45381;52.078;8.414;2022-07-06T15:44:12;100831.69;;;21.83;37.92
56514;BME280;45381;52.078;8.414;2022-07-06T15:45:59;100827.50;;;21.96;37.64
56514;BME280;45381;52.078;8.414;2022-07-06T15:47:45;100826.69;;;21.96;37.48
56514;BME280;45381;52.078;8.414;2022-07-06T15:49:30;100827.06;;;21.94;37.48
56514;BME280;45381;52.078;8.414;2022-07-06T15:51:15;100823.50;;;21.90;37.79
56514;BME280;45381;52.078;8.414;2022-07-06T15:53:00;100829.91;;;22.01;37.73
56514;BME280;45381;52.078;8.414;2022-07-06T15:54:48;100830.09;;;22.12;37.75
56514;BME280;45381;52.078;8.414;2022-07-06T15:56:34;100828.97;;;22.17;37.37
56514;BME280;45381;52.078;8.414;2022-07-06T15:58:20;100842.31;;;22.11;37.52
56514;BME280;45381;52.078;8.414;2022-07-06T16:00:06;100841.75;;;21.98;37.41
56514;BME280;45381;52.078;8.414;2022-07-06T16:01:55;100838.91;;;21.95;37.75
56514;BME280;45381;52.078;8.414;2022-07-06T16:03:40;100832.34;;;22.06;37.62
56514;BME280;45381;52.078;8.414;2022-07-06T16:05:26;100829.38;;;22.19;37.74
56514;BME280;45381;52.078;8.414;2022-07-06T16:07:11;100819.50;;;22.18;37.38
56514;BME280;45381;52.078;8.414;2022-07-06T16:08:56;100808.22;;;22.00;37.60
56514;BME280;45381;52.078;8.414;2022-07-06T16:10:44;100807.88;;;22.05;37.80
56514;BME280;45381;52.078;8.414;2022-07-06T16:12:29;100810.56;;;21.98;37.78
56514;BME280;45381;52.078;8.414;2022-07-06T16:14:14;100818.38;;;22.26;37.31
56514;BME280;45381;52.078;8.414;2022-07-06T16:15:59;100812.53;;;22.34;37.33
56514;BME280;45381;52.078;8.414;2022-07-06T16:17:44;100804.56;;;22.26;37.13
56514;BME280;45381;52.078;8.414;2022-07-06T16:19:29;100811.94;;;22.15;37.34
56514;BME280;45381;52.078;8.414;2022-07-06T16:21:14;100812.31;;;22.13;38.10
56514;BME280;45381;52.078;8.414;2022-07-06T16:22:59;100806.94;;;22.24;38.81
56514;BME280;45381;52.078;8.414;2022-07-06T16:24:44;100810.09;;;22.26;39.25
56514;BME280;45381;52.078;8.414;2022-07-06T16:26:32;100807.34;;;22.29;40.77
56514;BME280;45381;52.078;8.414;2022-07-06T16:28:17;100803.78;;;22.29;40.68
56514;BME280;45381;52.078;8.414;2022-07-06T16:30:03;100799.75;;;22.19;39.86
56514;BME280;45381;52.078;8.414;2022-07-06T16:31:49;100800.16;;;22.18;40.73
56514;BME280;45381;52.078;8.414;2022-07-06T16:33:34;100795.81;;;22.17;41.51
56514;BME280;45381;52.078;8.414;2022-07-06T16:35:20;100803.56;;;22.07;40.30
56514;BME280;45381;52.078;8.414;2022-07-06T16:37:05;100798.09;;;22.11;40.97
56514;BME280;45381;52.078;8.414;2022-07-06T16:38:50;100792.59;;;22.11;41.23
56514;BME280;45381;52.078;8.414;2022-07-06T16:40:35;100796.38;;;22.03;40.18
56514;BME280;45381;52.078;8.414;2022-07-06T16:42:23;100789.34;;;22.05;40.01
56514;BME280;45381;52.078;8.414;2022-07-06T16:44:08;100796.13;;;22.11;40.07
56514;BME280;45381;52.078;8.414;2022-07-06T16:45:53;100794.00;;;22.01;40.19
56514;BME280;45381;52.078;8.414;2022-07-06T16:47:38;100789.59;;;21.93;40.31
56514;BME280;45381;52.078;8.414;2022-07-06T16:49:23;100780.63;;;22.03;41.04
56514;BME280;45381;52.078;8.414;2022-07-06T16:51:08;100786.56;;;22.05;40.56
56514;BME280;45381;52.078;8.414;2022-07-06T16:52:53;100789.56;;;21.90;40.39
56514;BME280;45381;52.078;8.414;2022-07-06T16:54:39;100787.31;;;22.02;41.67
56514;BME280;45381;52.078;8.414;2022-07-06T16:56:24;100780.63;;;22.03;40.69
56514;BME280;45381;52.078;8.414;2022-07-06T16:58:12;100777.97;;;22.10;40.62
56514;BME280;45381;52.078;8.414;2022-07-06T16:59:57;100774.09;;;22.19;41.29
56514;BME280;45381;52.078;8.414;2022-07-06T17:01:42;100770.22;;;22.27;40.94
56514;BME280;45381;52.078;8.414;2022-07-06T17:03:28;100769.50;;;22.33;40.35
56514;BME280;45381;52.078;8.414;2022-07-06T17:05:13;100769.88;;;22.32;40.41
56514;BME280;45381;52.078;8.414;2022-07-06T17:06:58;100774.09;;;22.19;40.06
56514;BME280;45381;52.078;8.414;2022-07-06T17:08:43;100761.53;;;22.25;40.42
56514;BME280;45381;52.078;8.414;2022-07-06T17:10:28;100768.34;;;21.97;40.05
56514;BME280;45381;52.078;8.414;2022-07-06T17:12:13;100767.09;;;21.91;39.96
56514;BME280;45381;52.078;8.414;2022-07-06T17:14:01;100752.81;;;21.85;40.29
56514;BME280;45381;52.078;8.414;2022-07-06T17:15:45;100766.38;;;22.01;39.76
56514;BME280;45381;52.078;8.414;2022-07-06T17:17:30;100759.84;;;21.79;39.86
56514;BME280;45381;52.078;8.414;2022-07-06T17:19:15;100756.38;;;21.86;39.84
56514;BME280;45381;52.078;8.414;2022-07-06T17:21:00;100761.75;;;22.09;40.23
56514;BME280;45381;52.078;8.414;2022-07-06T17:22:45;100760.53;;;22.06;39.94
56514;BME280;45381;52.078;8.414;2022-07-06T17:24:30;100756.19;;;22.05;39.42
56514;BME280;45381;52.078;8.414;2022-07-06T17:26:15;100758.09;;;21.64;39.53
56514;BME280;45381;52.078;8.414;2022-07-06T17:28:01;100756.13;;;21.65;40.12
56514;BME280;45381;52.078;8.414;2022-07-06T17:29:48;100751.19;;;21.81;40.25
56514;BME280;45381;52.078;8.414;2022-07-06T17:31:34;100758.50;;;22.00;39.89
56514;BME280;45381;52.078;8.414;2022-07-06T17:33:19;100757.38;;;22.04;40.09
56514;BME280;45381;52.078;8.414;2022-07-06T17:35:05;100753.91;;;22.11;39.48
56514;BME280;45381;52.078;8.414;2022-07-06T17:36:50;100751.94;;;22.11;39.79
56514;BME280;45381;52.078;8.414;2022-07-06T17:38:35;100755.16;;;22.17;39.90
56514;BME280;45381;52.078;8.414;2022-07-06T17:40:21;100762.09;;;22.04;39.43
56514;BME280;45381;52.078;8.414;2022-07-06T17:42:07;100760.16;;;21.71;39.84
56514;BME280;45381;52.078;8.414;2022-07-06T17:43:55;100759.75;;;21.69;39.88
56514;BME280;45381;52.078;8.414;2022-07-06T17:45:43;100757.09;;;21.79;39.66
56514;BME280;45381;52.078;8.414;2022-07-06T17:47:28;100761.59;;;21.95;40.05
56514;BME280;45381;52.078;8.414;2022-07-06T17:49:13;100754.03;;;21.88;39.69
56514;BME280;45381;52.078;8.414;2022-07-06T17:50:58;100748.84;;;21.83;39.73
56514;BME280;45381;52.078;8.414;2022-07-06T17:52:44;100752.91;;;21.93;40.04
56514;BME280;45381;52.078;8.414;2022-07-06T17:54:29;100756.91;;;21.99;40.03
56514;BME280;45381;52.078;8.414;2022-07-06T17:56:14;100753.69;;;21.93;39.54
56514;BME280;45381;52.078;8.414;2022-07-06T17:58:00;100742.72;;;22.00;40.02
56514;BME280;45381;52.078;8.414;2022-07-06T17:59:47;100753.38;;;22.02;39.90
56514;BME280;45381;52.078;8.414;2022-07-06T18:01:35;100742.78;;;22.07;39.94
56514;BME280;45381;52.078;8.414;2022-07-06T18:03:20;100736.47;;;22.07;40.15
56514;BME280;45381;52.078;8.414;2022-07-06T18:05:06;100737.78;;;22.17;39.65
56514;BME280;45381;52.078;8.414;2022-07-06T18:06:52;100732.97;;;22.10;39.64
56514;BME280;45381;52.078;8.414;2022-07-06T18:08:37;100739.47;;;21.91;39.46
56514;BME280;45381;52.078;8.414;2022-07-06T18:10:23;100731.72;;;22.04;39.98
56514;BME280;45381;52.078;8.414;2022-07-06T18:12:10;100733.41;;;22.16;40.30
56514;BME280;45381;52.078;8.414;2022-07-06T18:13:55;100733.78;;;22.10;40.15
56514;BME280;45381;52.078;8.414;2022-07-06T18:15:43;100732.31;;;22.24;39.74
56514;BME280;45381;52.078;8.414;2022-07-06T18:17:30;100720.91;;;22.29;39.66
56514;BME280;45381;52.078;8.414;2022-07-06T18:19:15;100728.00;;;22.30;39.93
56514;BME280;45381;52.078;8.414;2022-07-06T18:21:01;100717.78;;;22.30;39.87
56514;BME280;45381;52.078;8.414;2022-07-06T18:22:46;100715.38;;;22.29;39.71
56514;BME280;45381;52.078;8.414;2022-07-06T18:24:31;100714.63;;;22.32;39.83
56514;BME280;45381;52.078;8.414;2022-07-06T18:26:16;100714.56;;;22.25;39.37
56514;BME280;45381;52.078;8.414;2022-07-06T18:28:01;100714.06;;;22.12;40.25
56514;BME280;45381;52.078;8.414;2022-07-06T18:29:47;100715.75;;;22.24;40.01
56514;BME280;45381;52.078;8.414;2022-07-06T18:31:32;100706.28;;;22.25;40.07
56514;BME280;45381;52.078;8.414;2022-07-06T18:33:20;100710.56;;;22.22;39.75
56514;BME280;45381;52.078;8.414;2022-07-06T18:35:08;100716.09;;;22.19;39.80
56514;BME280;45381;52.078;8.414;2022-07-06T18:36:53;100709.72;;;22.15;40.08
56514;BME280;45381;52.078;8.414;2022-07-06T18:38:39;100711.81;;;22.25;40.12
56514;BME280;45381;52.078;8.414;2022-07-06T18:40:23;100710.63;;;22.29;39.95
56514;BME280;45381;52.078;8.414;2022-07-06T18:42:09;100718.97;;;22.33;39.84
56514;BME280;45381;52.078;8.414;2022-07-06T18:43:54;100721.69;;;22.29;39.81
56514;BME280;45381;52.078;8.414;2022-07-06T18:45:39;100714.44;;;22.10;39.64
56514;BME280;45381;52.078;8.414;2022-07-06T18:47:24;100715.94;;;22.08;40.25
56514;BME280;45381;52.078;8.414;2022-07-06T18:49:15;100720.75;;;21.74;39.88
56514;BME280;45381;52.078;8.414;2022-07-06T18:51:00;100720.34;;;21.75;40.16
56514;BME280;45381;52.078;8.414;2022-07-06T18:52:45;100711.16;;;22.01;40.18
56514;BME280;45381;52.078;8.414;2022-07-06T18:54:30;100705.03;;;22.19;39.92
56514;BME280;45381;52.078;8.414;2022-07-06T18:56:15;100705.09;;;22.29;39.64
56514;BME280;45381;52.078;8.414;2022-07-06T18:58:02;100702.78;;;22.35;39.70
56514;BME280;45381;52.078;8.414;2022-07-06T18:59:47;100704.41;;;22.39;39.94
56514;BME280;45381;52.078;8.414;2022-07-06T19:01:32;100699.69;;;22.40;39.96
56514;BME280;45381;52.078;8.414;2022-07-06T19:03:17;100702.84;;;22.42;39.93
56514;BME280;45381;52.078;8.414;2022-07-06T19:05:06;100698.53;;;22.45;39.94
56514;BME280;45381;52.078;8.414;2022-07-06T19:06:51;100701.31;;;22.45;40.17
56514;BME280;45381;52.078;8.414;2022-07-06T19:08:36;100703.28;;;22.48;40.47
56514;BME280;45381;52.078;8.414;2022-07-06T19:10:21;100692.22;;;22.48;40.33
56514;BME280;45381;52.078;8.414;2022-07-06T19:12:07;100696.97;;;22.47;40.49
56514;BME280;45381;52.078;8.414;2022-07-06T19:13:53;100697.38;;;22.49;40.65
56514;BME280;45381;52.078;8.414;2022-07-06T19:15:38;100698.53;;;22.48;40.75
56514;BME280;45381;52.078;8.414;2022-07-06T19:17:22;100697.38;;;22.49;40.69
56514;BME280;45381;52.078;8.414;2022-07-06T19:19:09;100698.94;;;22.50;40.83
56514;BME280;45381;52.078;8.414;2022-07-06T19:20:57;100715.56;;;22.54;41.56
56514;BME280;45381;52.078;8.414;2022-07-06T19:22:42;100695.84;;;22.55;41.31
56514;BME280;45381;52.078;8.414;2022-07-06T19:24:27;100693.84;;;22.56;41.74
56514;BME280;45381;52.078;8.414;2022-07-06T19:26:12;100704.53;;;22.57;41.70
56514;BME280;45381;52.078;8.414;2022-07-06T19:27:57;100698.22;;;22.57;42.06
56514;BME280;45381;52.078;8.414;2022-07-06T19:29:42;100696.66;;;22.59;41.92
56514;BME280;45381;52.078;8.414;2022-07-06T19:31:28;100695.88;;;22.59;42.00
56514;BME280;45381;52.078;8.414;2022-07-06T19:33:13;100699.44;;;22.59;42.26
56514;BME280;45381;52.078;8.414;2022-07-06T19:34:59;100695.47;;;22.60;42.33
56514;BME280;45381;52.078;8.414;2022-07-06T19:36:46;100699.81;;;22.61;42.19
56514;BME280;45381;52.078;8.414;2022-07-06T19:38:31;100703.38;;;22.58;42.32
56514;BME280;45381;52.078;8.414;2022-07-06T19:40:17;100701.75;;;22.57;42.23
56514;BME280;45381;52.078;8.414;2022-07-06T19:42:02;100707.28;;;22.57;42.56
56514;BME280;45381;52.078;8.414;2022-07-06T19:43:48;100702.19;;;22.59;42.58
56514;BME280;45381;52.078;8.414;2022-07-06T19:45:33;100710.09;;;22.61;42.68
56514;BME280;45381;52.078;8.414;2022-07-06T19:47:18;100702.19;;;22.59;42.46
56514;BME280;45381;52.078;8.414;2022-07-06T19:49:03;100711.28;;;22.63;42.60
56514;BME280;45381;52.078;8.414;2022-07-06T19:50:49;100704.16;;;22.62;42.74
56514;BME280;45381;52.078;8.414;2022-07-06T19:52:37;100708.91;;;22.62;42.82
56514;BME280;45381;52.078;8.414;2022-07-06T19:54:22;100705.34;;;22.61;42.72
56514;BME280;45381;52.078;8.414;2022-07-06T19:56:07;100707.72;;;22.63;42.85
56514;BME280;45381;52.078;8.414;2022-07-06T19:57:53;100705.75;;;22.63;43.00
56514;BME280;45381;52.078;8.414;2022-07-06T19:59:38;100711.28;;;22.63;42.91
56514;BME280;45381;52.078;8.414;2022-07-06T20:01:23;100706.53;;;22.64;42.95
56514;BME280;45381;52.078;8.414;2022-07-06T20:03:08;100707.34;;;22.64;42.90
56514;BME280;45381;52.078;8.414;2022-07-06T20:04:53;100712.47;;;22.62;43.05
56514;BME280;45381;52.078;8.414;2022-07-06T20:06:38;100702.59;;;22.61;43.11
56514;BME280;45381;52.078;8.414;2022-07-06T20:08:26;100708.53;;;22.63;43.16
56514;BME280;45381;52.078;8.414;2022-07-06T20:10:11;100709.69;;;22.62;43.09
56514;BME280;45381;52.078;8.414;2022-07-06T20:11:57;100705.34;;;22.61;43.27
56514;BME280;45381;52.078;8.414;2022-07-06T20:13:42;100711.28;;;22.63;43.42
56514;BME280;45381;52.078;8.414;2022-07-06T20:15:27;100714.06;;;22.63;43.36
56514;BME280;45381;52.078;8.414;2022-07-06T20:17:12;100714.47;;;22.65;43.44
56514;BME280;45381;52.078;8.414;2022-07-06T20:18:57;100716.81;;;22.63;43.46
56514;BME280;45381;52.078;8.414;2022-07-06T20:20:42;100708.53;;;22.63;43.26
56514;BME280;45381;52.078;8.414;2022-07-06T20:22:27;100707.72;;;22.63;43.47
56514;BME280;45381;52.078;8.414;2022-07-06T20:24:16;100704.97;;;22.63;43.54
56514;BME280;45381;52.078;8.414;2022-07-06T20:26:01;100703.00;;;22.63;43.40
56514;BME280;45381;52.078;8.414;2022-07-06T20:27:46;100700.22;;;22.63;43.64
56514;BME280;45381;52.078;8.414;2022-07-06T20:29:31;100699.03;;;22.64;43.43
56514;BME280;45381;52.078;8.414;2022-07-06T20:31:16;100699.88;;;22.65;43.50
56514;BME280;45381;52.078;8.414;2022-07-06T20:33:01;100695.47;;;22.64;43.62
56514;BME280;45381;52.078;8.414;2022-07-06T20:34:46;100689.97;;;22.64;43.61
56514;BME280;45381;52.078;8.414;2022-07-06T20:36:31;100686.41;;;22.63;43.62
56514;BME280;45381;52.078;8.414;2022-07-06T20:38:17;100691.13;;;22.63;43.56
56514;BME280;45381;52.078;8.414;2022-07-06T20:40:06;100691.94;;;22.63;43.70
56514;BME280;45381;52.078;8.414;2022-07-06T20:41:51;100682.44;;;22.64;43.50
56514;BME280;45381;52.078;8.414;2022-07-06T20:43:36;100679.69;;;22.64;43.53
56514;BME280;45381;52.078;8.414;2022-07-06T20:45:24;100689.59;;;22.65;43.60
56514;BME280;45381;52.078;8.414;2022-07-06T20:47:09;100683.28;;;22.65;43.56
56514;BME280;45381;52.078;8.414;2022-07-06T20:48:54;100682.09;;;22.66;43.73
56514;BME280;45381;52.078;8.414;2022-07-06T20:50:39;100673.78;;;22.66;43.69
56514;BME280;45381;52.078;8.414;2022-07-06T20:52:24;100680.50;;;22.65;43.76
56514;BME280;45381;52.078;8.414;2022-07-06T20:54:10;100679.31;;;22.66;43.51
56514;BME280;45381;52.078;8.414;2022-07-06T20:55:58;100676.91;;;22.64;43.81
56514;BME280;45381;52.078;8.414;2022-07-06T20:57:44;100673.00;;;22.65;43.63
56514;BME280;45381;52.078;8.414;2022-07-06T20:59:29;100672.22;;;22.65;43.78
56514;BME280;45381;52.078;8.414;2022-07-06T21:01:14;100680.91;;;22.67;43.85
56514;BME280;45381;52.078;8.414;2022-07-06T21:03:00;100678.53;;;22.65;43.70
56514;BME280;45381;52.078;8.414;2022-07-06T21:04:45;100671.81;;;22.66;43.84
56514;BME280;45381;52.078;8.414;2022-07-06T21:06:30;100672.63;;;22.67;43.65
56514;BME280;45381;52.078;8.414;2022-07-06T21:08:15;100665.09;;;22.67;43.72
56514;BME280;45381;52.078;8.414;2022-07-06T21:10:00;100663.53;;;22.66;43.63
56514;BME280;45381;52.078;8.414;2022-07-06T21:11:48;100661.94;;;22.65;43.70
56514;BME280;45381;52.078;8.414;2022-07-06T21:13:33;100663.09;;;22.64;43.56
56514;BME280;45381;52.078;8.414;2022-07-06T21:15:18;100664.72;;;22.65;43.59
56514;BME280;45381;52.078;8.414;2022-07-06T21:17:04;100661.16;;;22.65;43.48
56514;BME280;45381;52.078;8.414;2022-07-06T21:18:49;100665.06;;;22.64;43.71
56514;BME280;45381;52.078;8.414;2022-07-06T21:20:34;100666.69;;;22.65;43.61
56514;BME280;45381;52.078;8.414;2022-07-06T21:22:19;100660.75;;;22.66;43.62
56514;BME280;45381;52.078;8.414;2022-07-06T21:24:04;100658.38;;;22.65;43.68
56514;BME280;45381;52.078;8.414;2022-07-06T21:25:50;100656.41;;;22.65;43.64
56514;BME280;45381;52.078;8.414;2022-07-06T21:27:38;100650.09;;;22.65;43.59
56514;BME280;45381;52.078;8.414;2022-07-06T21:29:23;100646.13;;;22.62;43.63
56514;BME280;45381;52.078;8.414;2022-07-06T21:31:08;100648.13;;;22.65;43.63
56514;BME280;45381;52.078;8.414;2022-07-06T21:32:53;100635.06;;;22.62;43.63
56514;BME280;45381;52.078;8.414;2022-07-06T21:34:38;100639.41;;;22.63;43.61
56514;BME280;45381;52.078;8.414;2022-07-06T21:36:23;100640.97;;;22.64;43.70
56514;BME280;45381;52.078;8.414;2022-07-06T21:38:08;100646.94;;;22.66;43.83
56514;BME280;45381;52.078;8.414;2022-07-06T21:39:53;100632.31;;;22.66;43.74
56514;BME280;45381;52.078;8.414;2022-07-06T21:41:38;100634.28;;;22.65;43.69
56514;BME280;45381;52.078;8.414;2022-07-06T21:43:26;100634.28;;;22.65;43.97
56514;BME280;45381;52.078;8.414;2022-07-06T21:45:11;100626.00;;;22.65;43.58
56514;BME280;45381;52.078;8.414;2022-07-06T21:46:56;100633.47;;;22.61;43.52
56514;BME280;45381;52.078;8.414;2022-07-06T21:48:41;100633.47;;;22.61;43.61
56514;BME280;45381;52.078;8.414;2022-07-06T21:50:26;100631.50;;;22.58;43.54
56514;BME280;45381;52.078;8.414;2022-07-06T21:52:11;100631.50;;;22.58;43.58
56514;BME280;45381;52.078;8.414;2022-07-06T21:53:57;100627.94;;;22.58;43.59
56514;BME280;45381;52.078;8.414;2022-07-06T21:55:42;100624.78;;;22.59;43.38
56514;BME280;45381;52.078;8.414;2022-07-06T21:57:27;100627.94;;;22.58;43.39
56514;BME280;45381;52.078;8.414;2022-07-06T21:59:15;100614.91;;;22.58;43.36
56514;BME280;45381;52.078;8.414;2022-07-06T22:01:00;100612.16;;;22.58;43.35
56514;BME280;45381;52.078;8.414;2022-07-06T22:02:46;100611.72;;;22.56;43.58
56514;BME280;45381;52.078;8.414;2022-07-06T22:04:31;100608.94;;;22.56;43.57
56514;BME280;45381;52.078;8.414;2022-07-06T22:06:16;100608.16;;;22.56;43.53
56514;BME280;45381;52.078;8.414;2022-07-06T22:08:01;100602.63;;;22.56;43.63
56514;BME280;45381;52.078;8.414;2022-07-06T22:09:46;100592.75;;;22.55;43.55
56514;BME280;45381;52.078;8.414;2022-07-06T22:11:31;100596.31;;;22.55;43.46
56514;BME280;45381;52.078;8.414;2022-07-06T22:13:16;100583.28;;;22.56;43.54
56514;BME280;45381;52.078;8.414;2022-07-06T22:15:16;100591.19;;;22.54;43.71
56514;BME280;45381;52.078;8.414;2022-07-06T22:17:02;100583.69;;;22.54;43.56
56514;BME280;45381;52.078;8.414;2022-07-06T22:18:49;100586.44;;;22.54;43.53
56514;BME280;45381;52.078;8.414;2022-07-06T22:20:35;100585.25;;;22.55;43.60
56514;BME280;45381;52.078;8.414;2022-07-06T22:22:20;100585.66;;;22.54;43.76
56514;BME280;45381;52.078;8.414;2022-07-06T22:24:06;100584.84;;;22.53;43.59
56514;BME280;45381;52.078;8.414;2022-07-06T22:25:51;100581.69;;;22.51;43.69
56514;BME280;45381;52.078;8.414;2022-07-06T22:27:36;100579.34;;;22.53;43.79
56514;BME280;45381;52.078;8.414;2022-07-06T22:29:21;100576.97;;;22.52;43.84
56514;BME280;45381;52.078;8.414;2022-07-06T22:31:09;100576.56;;;22.53;43.75
56514;BME280;45381;52.078;8.414;2022-07-06T22:32:55;100578.16;;;22.54;43.74
56514;BME280;45381;52.078;8.414;2022-07-06T22:34:40;100582.50;;;22.55;43.63
56514;BME280;45381;52.078;8.414;2022-07-06T22:36:25;100571.03;;;22.53;43.67
56514;BME280;45381;52.078;8.414;2022-07-06T22:38:13;100577.34;;;22.54;43.91
56514;BME280;45381;52.078;8.414;2022-07-06T22:39:58;100572.22;;;22.52;43.88
56514;BME280;45381;52.078;8.414;2022-07-06T22:41:56;100568.66;;;22.52;43.89
56514;BME280;45381;52.078;8.414;2022-07-06T22:43:41;100571.00;;;22.50;43.83
56514;BME280;45381;52.078;8.414;2022-07-06T22:45:27;100565.47;;;22.50;43.81
56514;BME280;45381;52.078;8.414;2022-07-06T22:47:12;100568.66;;;22.52;43.98
56514;BME280;45381;52.078;8.414;2022-07-06T22:48:57;100569.81;;;22.51;43.99
56514;BME280;45381;52.078;8.414;2022-07-06T22:50:42;100559.16;;;22.49;43.99
56514;BME280;45381;52.078;8.414;2022-07-06T22:52:27;100567.88;;;22.51;43.86
56514;BME280;45381;52.078;8.414;2022-07-06T22:54:12;100557.19;;;22.50;43.86
56514;BME280;45381;52.078;8.414;2022-07-06T22:55:58;100570.59;;;22.48;44.07
56514;BME280;45381;52.078;8.414;2022-07-06T22:57:43;100559.16;;;22.49;43.88
56514;BME280;45381;52.078;8.414;2022-07-06T22:59:28;100563.91;;;22.49;43.91
56514;BME280;45381;52.078;8.414;2022-07-06T23:01:13;100556.78;;;22.48;43.93
56514;BME280;45381;52.078;8.414;2022-07-06T23:03:01;100562.34;;;22.51;43.98
56514;BME280;45381;52.078;8.414;2022-07-06T23:04:46;100568.25;;;22.50;44.11
56514;BME280;45381;52.078;8.414;2022-07-06T23:06:31;100570.59;;;22.48;44.02
56514;BME280;45381;52.078;8.414;2022-07-06T23:08:16;100566.66;;;22.49;43.99
56514;BME280;45381;52.078;8.414;2022-07-06T23:10:02;100554.41;;;22.46;44.18
56514;BME280;45381;52.078;8.414;2022-07-06T23:11:47;100563.09;;;22.48;44.08
56514;BME280;45381;52.078;8.414;2022-07-06T23:13:32;100583.63;;;22.47;44.24
56514;BME280;45381;52.078;8.414;2022-07-06T23:15:18;100565.47;;;22.46;44.07
56514;BME280;45381;52.078;8.414;2022-07-06T23:17:03;100565.09;;;22.48;44.28
56514;BME280;45381;52.078;8.414;2022-07-06T23:18:51;100562.31;;;22.48;44.20
56514;BME280;45381;52.078;8.414;2022-07-06T23:20:36;100563.50;;;22.47;44.31
56514;BME280;45381;52.078;8.414;2022-07-06T23:22:21;100558.75;;;22.47;44.22
56514;BME280;45381;52.078;8.414;2022-07-06T23:24:06;100558.38;;;22.49;44.29
56514;BME280;45381;52.078;8.414;2022-07-06T23:25:51;100555.22;;;22.47;44.09
56514;BME280;45381;52.078;8.414;2022-07-06T23:27:36;100560.75;;;22.47;44.31
56514;BME280;45381;52.078;8.414;2022-07-06T23:29:21;100554.41;;;22.46;44.14
56514;BME280;45381;52.078;8.414;2022-07-06T23:31:06;100556.00;;;22.47;44.03
56514;BME280;45381;52.078;8.414;2022-07-06T23:32:51;100555.22;;;22.47;44.29
56514;BME280;45381;52.078;8.414;2022-07-06T23:34:39;100549.69;;;22.47;44.08
56514;BME280;45381;52.078;8.414;2022-07-06T23:36:24;100552.44;;;22.47;44.10
56514;BME280;45381;52.078;8.414;2022-07-06T23:38:09;100550.47;;;22.47;44.18
56514;BME280;45381;52.078;8.414;2022-07-06T23:39:55;100545.34;;;22.46;44.19
56514;BME280;45381;52.078;8.414;2022-07-06T23:41:40;100542.56;;;22.46;44.13
56514;BME280;45381;52.078;8.414;2022-07-06T23:43:25;100530.72;;;22.45;44.36
56514;BME280;45381;52.078;8.414;2022-07-06T23:45:10;100539.03;;;22.45;44.18
56514;BME280;45381;52.078;8.414;2022-07-06T23:46:55;100530.72;;;22.45;44.31
56514;BME280;45381;52.078;8.414;2022-07-06T23:48:41;100532.31;;;22.46;44.30
56514;BME280;45381;52.078;8.414;2022-07-06T23:50:29;100527.56;;;22.47;44.15
56514;BME280;45381;52.078;8.414;2022-07-06T23:52:14;100524.41;;;22.45;44.17
56514;BME280;45381;52.078;8.414;2022-07-06T23:53:59;100521.25;;;22.46;44.16
56514;BME280;45381;52.078;8.414;2022-07-06T23:55:44;100522.00;;;22.43;44.12
56514;BME280;45381;52.078;8.414;2022-07-06T23:57:29;100520.47;;;22.46;44.18
56514;BME280;45381;52.078;8.414;2022-07-06T23:59:13;100518.09;;;22.44;44.38
